aviador You're here:

KCBE Decoded Metar

CUMBERLAND REG in MD, USA
Report Time2017-03-23 23:42:00
UTC Time2017-03-24 00:01:41
Flight Rules vfr VFR
Wind100° at 03 kt
W.Decomp.*RWY 11: 3.0 kt HW -0 kt LCW
RWY 05: 1.5 kt HW 2.6 kt RCW
W.Rank100° ranks 32
Current wind is below 100° avg. (4.5)
Visibility9999 m
Phenomena:N/A
Clouds:N/A
Expected CloudBase > 8,000 ft AGL from Temp-Dew spread
CeilingNone
Temp08°C (ISA -5)
Dew Point-12°C (23% RH)
AAT3.7°C
QNH1031 hPa
Density Alt-449 ft
Elevation774 ft
Report Wrong Elevation
Raw Report
METAR KCBE 232342Z AUTO 10003KT 10SM CLR 08/M12 A3045 RMK AO1=

Extra information for KCBE:More info

Metar Taf Metar & Taf Last 4 Metars F.Rules Stats Wind Profile Meteogram Temp Stats Airport Information Weather charts Add Link Nearby VenuesMetar ALERT Operation Metar Decoded Social comments

AIRNAV info for KCBE